Time;durP1;ratioP1;P1;durP2;ratioP2;P2;SDS_P1;SDS_P2;PMS_P1;PMS_P2;Temp;Humidity;BMP_temperature;BMP_pressure;BME280_temperature;BME280_humidity;BME280_pressure;Samples;Min_cycle;Max_cycle;Signal;HPM_P1;HPM_P2
2023/08/19 00:01:32;;;;;;;21.88;18.42;;;29.50;99.90;;;;;;5055764;28;20025;-67
2023/08/19 00:03:59;;;;;;;20.95;18.75;;;29.50;99.90;;;;;;5055517;28;20067;-67
2023/08/19 00:06:36;;;;;;;21.60;18.48;;;29.50;99.90;;;;;;5055266;28;20053;-67
2023/08/19 00:09:04;;;;;;;20.40;18.27;;;29.40;99.90;;;;;;5055370;28;20078;-67
2023/08/19 00:11:33;;;;;;;19.15;17.25;;;29.40;99.90;;;;;;5055573;28;20425;-67
2023/08/19 00:13:59;;;;;;;18.88;17.15;;;29.40;99.90;;;;;;5055126;28;20463;-67
2023/08/19 00:16:25;;;;;;;19.17;17.38;;;29.40;99.90;;;;;;5055551;28;20419;-67
2023/08/19 00:18:51;;;;;;;19.02;16.75;;;29.40;99.90;;;;;;5055070;28;20063;-67
2023/08/19 00:21:16;;;;;;;17.80;16.15;;;29.40;99.90;;;;;;5055111;28;20055;-67
2023/08/19 00:23:42;;;;;;;18.05;15.30;;;29.40;99.90;;;;;;5053184;28;20166;-67
2023/08/19 00:26:08;;;;;;;15.35;13.88;;;29.40;99.90;;;;;;5041598;28;20021;-67
2023/08/19 00:28:33;;;;;;;16.30;14.57;;;29.40;99.90;;;;;;5055081;28;20044;-67
2023/08/19 00:30:59;;;;;;;19.70;14.70;;;29.20;99.90;;;;;;5054915;28;20025;-67
2023/08/19 00:33:25;;;;;;;18.63;14.70;;;29.40;99.90;;;;;;5054994;28;20036;-67
2023/08/19 00:35:53;;;;;;;16.73;14.77;;;29.30;99.90;;;;;;5054853;28;20021;-67
2023/08/19 00:38:19;;;;;;;15.18;13.30;;;29.20;99.90;;;;;;5054685;28;20029;-67
2023/08/19 00:40:45;;;;;;;15.63;14.23;;;29.30;99.90;;;;;;5054814;28;20024;-67
2023/08/19 00:43:10;;;;;;;14.70;13.23;;;29.30;99.90;;;;;;5055129;28;20037;-67
2023/08/19 00:45:44;;;;;;;15.07;13.68;;;29.30;99.90;;;;;;5053493;28;20025;-67
2023/08/19 00:48:11;;;;;;;15.48;13.38;;;29.30;99.90;;;;;;5048766;28;20029;-67
2023/08/19 00:50:37;;;;;;;15.40;12.98;;;29.30;99.90;;;;;;5045863;28;20540;-67
2023/08/19 00:53:03;;;;;;;14.38;12.98;;;29.20;99.90;;;;;;5050505;28;20025;-68
2023/08/19 00:55:29;;;;;;;13.07;11.82;;;29.20;99.90;;;;;;5049279;28;20030;-67
2023/08/19 00:57:55;;;;;;;13.48;11.38;;;29.30;99.90;;;;;;5046586;28;20033;-67
2023/08/19 01:00:22;;;;;;;14.15;12.75;;;29.20;99.90;;;;;;5036414;28;20108;-67
2023/08/19 01:02:48;;;;;;;12.93;11.65;;;29.30;99.90;;;;;;5048356;28;20033;-67
2023/08/19 01:05:13;;;;;;;14.07;12.65;;;29.20;99.90;;;;;;5043116;28;20517;-67
2023/08/19 01:07:55;;;;;;;14.98;13.38;;;29.20;99.90;;;;;;5054293;28;20065;-67
2023/08/19 01:10:27;;;;;;;13.10;11.98;;;29.20;99.90;;;;;;5054205;28;20462;-67
2023/08/19 01:13:05;;;;;;;15.05;11.93;;;29.20;99.90;;;;;;5040304;28;20352;-67
2023/08/19 01:15:35;;;;;;;13.43;12.00;;;29.20;99.90;;;;;;5054419;28;20032;-67
2023/08/19 01:18:03;;;;;;;12.82;11.55;;;29.10;99.90;;;;;;5053905;28;20112;-67
2023/08/19 01:20:31;;;;;;;12.50;11.55;;;29.10;99.90;;;;;;5053460;28;20029;-67
2023/08/19 01:23:05;;;;;;;13.00;11.75;;;29.10;99.90;;;;;;5053189;28;20032;-67
2023/08/19 01:25:31;;;;;;;;;;;28.90;99.90;;;;;;5050713;28;20029;-67
2023/08/19 01:28:01;;;;;;;13.00;11.70;;;29.00;99.90;;;;;;5046408;28;19923;-67
2023/08/19 01:30:28;;;;;;;14.27;12.38;;;29.00;99.90;;;;;;5032675;28;20029;-67
2023/08/19 01:32:54;;;;;;;14.95;12.65;;;29.10;99.90;;;;;;5044794;28;20033;-67
2023/08/19 01:35:20;;;;;;;12.82;11.73;;;29.00;99.90;;;;;;5051897;28;20027;-67
2023/08/19 01:38:21;;;;;;;12.43;11.13;;;29.00;99.90;;;;;;5050872;28;20040;-67
2023/08/19 01:40:47;;;;;;;12.90;11.70;;;29.10;99.90;;;;;;5045102;28;20037;-67
2023/08/19 01:43:14;;;;;;;13.90;12.40;;;29.00;99.90;;;;;;5051060;28;20025;-67
2023/08/19 01:45:40;;;;;;;13.65;12.23;;;29.00;99.90;;;;;;5052775;28;20024;-67
2023/08/19 01:48:06;;;;;;;12.20;11.10;;;29.00;99.90;;;;;;5052789;28;20116;-67
2023/08/19 01:50:32;;;;;;;12.85;10.95;;;29.00;99.90;;;;;;5052768;28;20105;-67
2023/08/19 01:52:58;;;;;;;15.38;11.77;;;28.90;99.90;;;;;;5052673;28;20490;-67
2023/08/19 01:55:23;;;;;;;12.32;11.02;;;29.00;99.90;;;;;;5052799;28;20089;-67
2023/08/19 01:57:49;;;;;;;12.20;11.05;;;29.00;99.90;;;;;;5052526;28;20028;-67
2023/08/19 02:00:15;;;;;;;12.07;10.90;;;29.00;99.90;;;;;;5052530;28;20029;-67
2023/08/19 02:02:40;;;;;;;12.30;11.10;;;28.90;99.90;;;;;;5048595;28;20083;-67
2023/08/19 02:05:12;;;;;;;12.60;11.45;;;28.80;99.90;;;;;;5042415;28;20048;-67
2023/08/19 02:07:38;;;;;;;12.35;10.95;;;28.80;99.90;;;;;;5052759;28;20029;-67
2023/08/19 02:10:03;;;;;;;13.18;11.32;;;28.90;99.90;;;;;;5052544;28;20025;-68
2023/08/19 02:12:29;;;;;;;12.77;11.05;;;28.80;99.90;;;;;;5053160;28;20021;-67
2023/08/19 02:14:55;;;;;;;13.13;10.93;;;28.80;99.90;;;;;;5053418;28;20434;-67
2023/08/19 02:17:20;;;;;;;14.30;12.77;;;28.80;99.90;;;;;;5053234;28;20025;-67
2023/08/19 02:19:49;;;;;;;12.10;10.93;;;28.80;99.90;;;;;;5052913;28;20059;-67
2023/08/19 02:22:20;;;;;;;12.05;10.85;;;28.70;99.90;;;;;;5053045;28;20067;-67
2023/08/19 02:24:46;;;;;;;13.25;12.02;;;28.80;99.90;;;;;;5048993;28;20068;-67
2023/08/19 02:27:12;;;;;;;13.25;11.50;;;28.80;99.90;;;;;;5042841;28;20041;-67
2023/08/19 02:29:37;;;;;;;12.95;11.73;;;28.70;99.90;;;;;;5053099;28;20035;-67
2023/08/19 02:32:03;;;;;;;12.10;11.05;;;28.70;99.90;;;;;;5053264;28;20021;-67
2023/08/19 02:34:29;;;;;;;14.85;12.52;;;28.70;99.90;;;;;;5045642;28;20032;-67
2023/08/19 02:36:54;;;;;;;13.07;11.70;;;28.70;99.90;;;;;;5053107;28;20364;-67
2023/08/19 02:39:23;;;;;;;13.15;12.00;;;28.70;99.90;;;;;;5048021;28;20040;-67
2023/08/19 02:41:48;;;;;;;13.18;11.93;;;28.50;99.90;;;;;;5037086;28;20049;-67
2023/08/19 02:44:14;;;;;;;13.55;12.10;;;28.60;99.90;;;;;;5052464;28;20107;-67
2023/08/19 02:46:39;;;;;;;12.88;11.57;;;28.70;99.90;;;;;;5051344;28;20463;-67
2023/08/19 02:49:05;;;;;;;14.05;12.52;;;28.60;99.90;;;;;;5053065;28;20021;-67
2023/08/19 02:51:31;;;;;;;13.60;12.20;;;28.60;99.90;;;;;;5052572;28;20028;-67
2023/08/19 02:53:56;;;;;;;13.00;11.80;;;28.60;99.90;;;;;;5052125;28;20108;-67
2023/08/19 02:56:22;;;;;;;12.90;11.63;;;28.60;99.90;;;;;;5050744;28;20475;-67
2023/08/19 02:58:48;;;;;;;14.00;12.25;;;28.50;99.90;;;;;;5050612;28;20545;-67
2023/08/19 03:01:14;;;;;;;13.43;12.15;;;28.60;99.90;;;;;;5042416;28;20033;-68
2023/08/19 03:03:39;;;;;;;12.90;11.60;;;28.60;99.90;;;;;;5041252;28;20025;-67
2023/08/19 03:06:05;;;;;;;13.18;11.77;;;28.50;99.90;;;;;;5049765;28;20053;-67
2023/08/19 03:08:31;;;;;;;12.73;11.52;;;28.50;99.90;;;;;;5046185;28;20039;-68
2023/08/19 03:10:57;;;;;;;13.15;12.10;;;28.50;99.90;;;;;;5052540;28;20021;-67
2023/08/19 03:13:22;;;;;;;14.20;12.75;;;28.50;99.90;;;;;;5053065;28;20119;-68
2023/08/19 03:15:48;;;;;;;12.85;11.55;;;28.40;99.90;;;;;;5056383;28;20049;-68
2023/08/19 03:18:14;;;;;;;13.45;12.15;;;28.40;99.90;;;;;;5056293;28;20028;-67
2023/08/19 03:20:41;;;;;;;12.75;11.48;;;28.40;99.90;;;;;;5042242;28;20032;-67
2023/08/19 03:23:07;;;;;;;13.90;12.43;;;28.40;99.90;;;;;;5056658;28;20096;-67
2023/08/19 03:25:32;;;;;;;12.52;11.32;;;28.40;99.90;;;;;;5056213;28;20036;-67
2023/08/19 03:27:58;;;;;;;12.90;11.55;;;28.40;99.90;;;;;;5056116;28;20106;-67
2023/08/19 03:30:24;;;;;;;13.07;11.98;;;28.50;99.90;;;;;;5056279;28;20027;-67
2023/08/19 03:32:49;;;;;;;12.98;11.77;;;28.40;99.90;;;;;;5055990;28;20109;-67
2023/08/19 03:35:15;;;;;;;13.32;12.05;;;28.30;99.90;;;;;;5053280;28;20021;-67
2023/08/19 03:37:41;;;;;;;13.65;12.27;;;28.40;99.90;;;;;;5055802;28;20025;-67
2023/08/19 03:40:07;;;;;;;13.07;11.77;;;28.40;99.90;;;;;;5056307;28;20021;-67
2023/08/19 03:42:33;;;;;;;13.50;12.30;;;28.40;99.90;;;;;;5055919;28;20043;-67
2023/08/19 03:44:59;;;;;;;14.05;11.10;;;28.40;99.90;;;;;;5055788;28;20025;-67
2023/08/19 03:47:24;;;;;;;13.43;12.23;;;28.40;99.90;;;;;;5055889;28;20494;-67
2023/08/19 03:49:50;;;;;;;13.50;12.20;;;28.30;99.90;;;;;;5052953;28;20021;-67
2023/08/19 03:52:16;;;;;;;13.18;12.07;;;28.30;99.90;;;;;;5043441;28;20044;-67
2023/08/19 03:54:41;;;;;;;16.27;12.77;;;28.30;99.90;;;;;;5055908;28;20029;-66
2023/08/19 03:57:07;;;;;;;13.10;11.82;;;28.30;99.90;;;;;;5055664;28;20044;-67
2023/08/19 03:59:33;;;;;;;12.93;11.73;;;28.30;99.90;;;;;;5055632;28;20037;-66
2023/08/19 04:01:59;;;;;;;15.23;11.52;;;28.20;99.90;;;;;;5055794;28;20025;-67
2023/08/19 04:04:24;;;;;;;11.95;10.80;;;28.30;99.90;;;;;;5055664;28;20029;-68
2023/08/19 04:06:50;;;;;;;15.02;12.55;;;28.30;99.90;;;;;;5054186;28;20045;-67
2023/08/19 04:09:15;;;;;;;13.10;11.75;;;28.20;99.90;;;;;;5055474;28;20027;-68
2023/08/19 04:11:41;;;;;;;12.93;11.63;;;28.20;99.90;;;;;;5055388;28;20037;-68
2023/08/19 04:14:07;;;;;;;13.60;12.25;;;28.20;99.90;;;;;;5053991;28;20025;-68
2023/08/19 04:16:33;;;;;;;14.15;11.77;;;28.20;99.90;;;;;;5055902;28;20080;-68
2023/08/19 04:18:59;;;;;;;13.45;12.07;;;28.20;99.90;;;;;;5055293;28;20068;-68
2023/08/19 04:21:25;;;;;;;13.07;11.77;;;28.20;99.90;;;;;;5055315;28;20115;-68
2023/08/19 04:23:50;;;;;;;12.98;11.88;;;28.10;99.90;;;;;;5054971;28;20017;-68
2023/08/19 04:26:16;;;;;;;12.68;11.45;;;28.10;99.90;;;;;;5042159;28;20410;-68
2023/08/19 04:28:42;;;;;;;13.82;11.15;;;28.10;99.90;;;;;;5055045;28;20398;-68
2023/08/19 04:31:08;;;;;;;12.75;11.45;;;28.10;99.90;;;;;;5054964;28;20023;-68
2023/08/19 04:33:35;;;;;;;13.05;11.70;;;28.20;99.90;;;;;;5055065;28;20060;-68
2023/08/19 04:36:02;;;;;;;12.73;11.57;;;28.20;99.90;;;;;;5054872;28;20155;-68
2023/08/19 04:38:28;;;;;;;11.55;10.45;;;28.10;99.90;;;;;;5054986;28;20032;-68
2023/08/19 04:40:54;;;;;;;12.80;11.50;;;28.10;99.90;;;;;;5055098;28;20048;-68
2023/08/19 04:43:20;;;;;;;12.35;11.20;;;28.10;99.90;;;;;;5055184;28;20386;-68
2023/08/19 04:45:46;;;;;;;12.43;11.13;;;28.20;99.90;;;;;;5054718;28;20379;-68
2023/08/19 04:48:12;;;;;;;11.80;10.80;;;28.20;99.90;;;;;;5054872;28;20029;-68
2023/08/19 04:50:37;;;;;;;12.50;10.85;;;28.20;99.90;;;;;;5055014;28;20029;-68
2023/08/19 04:53:03;;;;;;;16.98;10.82;;;28.10;99.90;;;;;;5053385;28;20025;-68
2023/08/19 04:55:30;;;;;;;12.60;11.32;;;28.20;99.90;;;;;;5054688;28;20021;-68
2023/08/19 04:57:55;;;;;;;15.52;11.48;;;28.10;99.90;;;;;;5054595;28;20033;-68
2023/08/19 05:00:21;;;;;;;17.63;11.70;;;28.10;99.90;;;;;;5054543;28;20024;-68
2023/08/19 05:02:48;;;;;;;14.13;11.52;;;28.20;99.90;;;;;;5054447;28;20543;-68
2023/08/19 05:05:14;;;;;;;14.07;11.50;;;28.20;99.90;;;;;;5054390;28;20075;-68
2023/08/19 05:07:40;;;;;;;12.30;11.00;;;28.10;99.90;;;;;;5048436;28;20494;-69
2023/08/19 05:10:06;;;;;;;12.32;11.10;;;28.10;99.90;;;;;;5051901;28;20024;-69
2023/08/19 05:12:32;;;;;;;12.60;11.32;;;28.00;99.90;;;;;;5045024;28;20033;-68
2023/08/19 05:14:58;;;;;;;13.00;11.95;;;28.10;99.90;;;;;;5054120;28;20021;-68
2023/08/19 05:17:23;;;;;;;12.55;11.43;;;28.10;99.90;;;;;;5045178;28;20044;-68
2023/08/19 05:19:49;;;;;;;13.50;12.13;;;28.00;99.90;;;;;;5045072;28;20017;-68
2023/08/19 05:22:15;;;;;;;13.90;12.32;;;28.00;99.90;;;;;;5036195;28;20059;-68
2023/08/19 05:24:41;;;;;;;14.20;11.43;;;27.90;99.90;;;;;;5053880;28;20520;-68
2023/08/19 05:27:07;;;;;;;12.38;11.02;;;28.00;99.90;;;;;;5054123;28;20041;-68
2023/08/19 05:29:32;;;;;;;15.43;12.77;;;28.10;99.90;;;;;;5040825;28;20036;-68
2023/08/19 05:31:58;;;;;;;13.65;12.27;;;28.10;99.90;;;;;;5052937;28;20017;-68
2023/08/19 05:34:25;;;;;;;12.13;10.88;;;28.10;99.90;;;;;;5054144;28;20017;-68
2023/08/19 05:36:51;;;;;;;13.30;12.13;;;28.00;99.90;;;;;;5053357;28;20469;-68
2023/08/19 05:39:17;;;;;;;12.32;11.23;;;28.10;99.90;;;;;;5053886;28;20025;-68
2023/08/19 05:41:43;;;;;;;13.75;12.55;;;28.10;99.90;;;;;;5053550;28;20501;-67
2023/08/19 05:44:08;;;;;;;13.60;12.48;;;28.00;99.90;;;;;;5053745;28;20031;-68
2023/08/19 05:46:34;;;;;;;12.07;10.90;;;28.10;99.90;;;;;;5053542;28;20097;-68
2023/08/19 05:49:00;;;;;;;13.45;12.15;;;28.10;99.90;;;;;;5052097;28;20116;-68
2023/08/19 05:51:26;;;;;;;12.60;11.50;;;28.10;99.90;;;;;;5053503;28;20017;-68
2023/08/19 05:53:58;;;;;;;14.07;12.57;;;28.10;99.90;;;;;;5053244;28;20024;-68
2023/08/19 05:56:24;;;;;;;13.63;12.32;;;28.10;99.90;;;;;;5053723;28;20024;-68
2023/08/19 05:58:50;;;;;;;13.02;11.73;;;28.10;99.90;;;;;;5053252;28;20386;-68
2023/08/19 06:01:16;;;;;;;13.88;12.55;;;28.10;99.90;;;;;;5051585;28;20387;-67
2023/08/19 06:03:41;;;;;;;13.18;12.00;;;28.20;99.90;;;;;;5052559;28;20024;-67
2023/08/19 06:06:07;;;;;;;13.45;12.15;;;28.20;99.90;;;;;;5052225;28;20041;-66
2023/08/19 06:08:33;;;;;;;15.52;12.52;;;28.10;99.90;;;;;;5052548;28;20037;-66
2023/08/19 06:11:02;;;;;;;13.38;11.98;;;28.00;99.90;;;;;;5051376;28;20029;-66
2023/08/19 06:13:28;;;;;;;13.70;12.35;;;28.10;99.90;;;;;;5033267;28;20024;-66
2023/08/19 06:15:54;;;;;;;13.05;11.85;;;28.10;99.90;;;;;;5052983;28;20102;-66
2023/08/19 06:18:20;;;;;;;13.60;11.88;;;28.20;99.90;;;;;;5053010;28;20072;-67
2023/08/19 06:20:45;;;;;;;13.23;12.02;;;28.20;99.90;;;;;;5051444;28;20036;-67
2023/08/19 06:23:11;;;;;;;13.60;12.10;;;28.30;99.90;;;;;;5052651;28;20021;-68
2023/08/19 06:25:37;;;;;;;12.35;11.15;;;28.30;99.90;;;;;;5051824;28;20025;-67
2023/08/19 06:28:03;;;;;;;13.60;12.30;;;28.30;99.90;;;;;;5035574;28;20564;-67
2023/08/19 06:30:28;;;;;;;13.90;12.43;;;28.30;99.90;;;;;;5042287;28;20023;-67
2023/08/19 06:32:54;;;;;;;13.13;11.88;;;28.40;99.90;;;;;;5052734;28;20047;-67
2023/08/19 06:35:20;;;;;;;13.50;12.30;;;28.40;99.90;;;;;;5052864;28;20055;-67
2023/08/19 06:37:52;;;;;;;14.18;12.70;;;28.30;99.90;;;;;;5053072;28;20029;-67
2023/08/19 06:40:20;;;;;;;13.05;11.70;;;28.40;99.90;;;;;;5052889;28;20025;-67
2023/08/19 06:42:48;;;;;;;12.93;11.63;;;28.40;99.90;;;;;;5052757;28;20490;-67
2023/08/19 06:45:16;;;;;;;13.05;11.73;;;28.40;99.90;;;;;;5053002;28;20025;-67
2023/08/19 06:47:42;;;;;;;12.02;11.02;;;28.50;99.90;;;;;;5052912;28;20045;-67
2023/08/19 06:50:09;;;;;;;13.48;12.10;;;28.50;99.90;;;;;;5055905;28;20473;-67
2023/08/19 06:52:35;;;;;;;12.57;11.27;;;28.50;99.90;;;;;;5056998;28;20482;-67
2023/08/19 06:55:01;;;;;;;12.38;11.25;;;28.60;99.90;;;;;;5056822;28;20033;-67
2023/08/19 06:57:28;;;;;;;11.75;10.65;;;28.60;99.90;;;;;;5049617;28;20605;-66
2023/08/19 07:00:01;;;;;;;12.73;11.52;;;28.60;99.90;;;;;;5050468;28;20032;-67
2023/08/19 07:02:32;;;;;;;12.77;10.98;;;28.60;99.90;;;;;;5050337;28;20018;-67
2023/08/19 07:04:59;;;;;;;13.98;11.80;;;28.60;99.90;;;;;;5049729;28;20435;-66
2023/08/19 07:07:27;;;;;;;12.77;11.27;;;28.70;99.90;;;;;;5056719;28;20048;-67
2023/08/19 07:09:53;;;;;;;12.98;11.82;;;28.70;99.90;;;;;;5056711;28;20029;-67
2023/08/19 07:12:19;;;;;;;13.05;11.40;;;28.70;99.90;;;;;;5056429;28;20028;-67
2023/08/19 07:14:46;;;;;;;13.00;11.82;;;28.70;99.90;;;;;;5054035;28;20056;-67
2023/08/19 07:17:14;;;;;;;11.98;10.98;;;28.70;99.90;;;;;;5051099;28;20021;-67
2023/08/19 07:19:40;;;;;;;12.65;11.50;;;28.70;99.90;;;;;;5051797;28;20397;-67
2023/08/19 07:22:07;;;;;;;13.65;12.32;;;28.70;99.90;;;;;;5053518;28;20105;-68
2023/08/19 07:24:33;;;;;;;12.25;11.02;;;28.70;99.90;;;;;;5044902;28;20025;-68
2023/08/19 07:27:03;;;;;;;13.52;12.20;;;28.80;99.90;;;;;;5056209;28;20040;-68
2023/08/19 07:29:30;;;;;;;13.50;12.23;;;28.80;99.90;;;;;;5056202;28;20037;-68
2023/08/19 07:31:57;;;;;;;13.00;11.75;;;28.80;99.90;;;;;;5056162;28;20033;-68
2023/08/19 07:34:23;;;;;;;13.45;12.20;;;28.80;99.90;;;;;;5054772;28;20386;-68
2023/08/19 07:36:49;;;;;;;13.27;11.73;;;28.90;99.90;;;;;;5055900;28;20033;-68
2023/08/19 07:39:15;;;;;;;13.48;12.23;;;28.80;99.90;;;;;;5056081;28;20056;-68
2023/08/19 07:41:40;;;;;;;12.70;11.27;;;28.90;99.90;;;;;;5055900;28;20040;-68
2023/08/19 07:44:06;;;;;;;12.48;11.27;;;28.90;99.90;;;;;;5055944;28;20036;-67
2023/08/19 07:46:32;;;;;;;13.77;12.55;;;29.00;99.90;;;;;;5055911;28;20037;-68
2023/08/19 07:48:59;;;;;;;13.65;12.40;;;29.00;99.90;;;;;;5055777;28;20033;-68
2023/08/19 07:51:24;;;;;;;14.52;13.07;;;29.00;99.90;;;;;;5056016;28;20528;-68
2023/08/19 07:53:50;;;;;;;14.88;13.48;;;29.10;99.90;;;;;;5056014;28;20049;-68
2023/08/19 07:56:17;;;;;;;14.63;13.15;;;29.20;99.90;;;;;;5055624;28;20036;-68
2023/08/19 07:58:43;;;;;;;14.07;12.40;;;29.20;99.90;;;;;;5055731;28;20021;-68
2023/08/19 08:01:10;;;;;;;14.98;13.65;;;29.20;99.90;;;;;;5055517;28;20035;-68
2023/08/19 08:03:38;;;;;;;16.20;14.68;;;29.20;99.90;;;;;;5040290;28;20029;-68
2023/08/19 08:06:04;;;;;;;13.55;12.45;;;29.10;99.90;;;;;;5055476;28;20041;-68
2023/08/19 08:08:29;;;;;;;14.25;12.98;;;29.20;99.90;;;;;;5055389;28;20047;-68
2023/08/19 08:10:55;;;;;;;16.35;14.07;;;29.20;99.90;;;;;;5055548;28;20013;-68
2023/08/19 08:13:21;;;;;;;15.35;13.77;;;29.30;99.90;;;;;;5055594;28;20116;-68
2023/08/19 08:15:47;;;;;;;16.63;13.45;;;29.20;99.90;;;;;;5055416;28;20025;-68
2023/08/19 08:18:13;;;;;;;16.92;15.23;;;29.30;99.90;;;;;;5055386;28;20021;-68
2023/08/19 08:20:39;;;;;;;15.82;14.27;;;29.30;99.90;;;;;;5055505;28;20025;-68
2023/08/19 08:23:05;;;;;;;15.35;13.73;;;29.30;99.90;;;;;;5055248;28;20383;-68
2023/08/19 08:25:31;;;;;;;15.10;13.68;;;29.40;99.90;;;;;;5055119;28;20029;-68
2023/08/19 08:27:56;;;;;;;14.18;12.90;;;29.50;99.90;;;;;;5055085;28;20489;-68
2023/08/19 08:30:22;;;;;;;15.48;13.88;;;29.50;99.90;;;;;;5050183;28;20021;-68
2023/08/19 08:32:49;;;;;;;16.63;15.02;;;29.60;99.90;;;;;;5055311;28;20079;-68
2023/08/19 08:35:14;;;;;;;15.45;13.80;;;29.60;99.90;;;;;;5055091;28;20497;-68
2023/08/19 08:37:40;;;;;;;15.90;14.50;;;29.60;99.90;;;;;;5053690;28;20025;-67
2023/08/19 08:40:07;;;;;;;16.67;15.32;;;29.60;99.90;;;;;;5054917;28;20049;-66
2023/08/19 08:42:33;;;;;;;15.07;13.38;;;29.60;99.90;;;;;;5055133;28;20029;-67
2023/08/19 08:44:59;;;;;;;16.38;14.98;;;29.70;99.90;;;;;;5049580;28;20099;-66
2023/08/19 08:47:26;;;;;;;15.38;13.55;;;29.70;99.90;;;;;;5045936;28;20120;-66
2023/08/19 08:49:53;;;;;;;16.52;15.02;;;29.70;99.90;;;;;;5054745;28;20474;-66
2023/08/19 08:52:20;;;;;;;16.55;14.82;;;29.80;99.90;;;;;;5054687;28;20047;-67
2023/08/19 08:54:54;;;;;;;16.70;15.15;;;29.80;99.90;;;;;;5054457;28;20041;-67
2023/08/19 08:57:20;;;;;;;15.90;14.50;;;29.80;99.90;;;;;;5054607;28;20020;-67
2023/08/19 08:59:45;;;;;;;15.60;14.00;;;29.90;99.90;;;;;;5054488;28;20029;-66
2023/08/19 09:02:12;;;;;;;16.20;14.55;;;29.90;99.90;;;;;;5053345;28;20116;-66
2023/08/19 09:04:44;;;;;;;14.55;13.35;;;29.90;99.90;;;;;;5054514;28;20028;-66
2023/08/19 09:07:16;;;;;;;15.35;14.02;;;30.00;99.90;;;;;;5054560;28;20478;-67
2023/08/19 09:09:45;;;;;;;15.13;13.63;;;30.00;99.90;;;;;;5054433;28;20041;-67
2023/08/19 09:12:12;;;;;;;15.90;14.25;;;30.00;99.90;;;;;;5053348;28;20021;-67
2023/08/19 09:14:43;;;;;;;16.08;14.55;;;30.10;99.90;;;;;;5053572;28;20024;-67
2023/08/19 09:17:14;;;;;;;16.40;14.70;;;30.10;99.90;;;;;;5039466;28;20029;-67
2023/08/19 09:19:40;;;;;;;15.45;13.90;;;30.20;99.90;;;;;;5054158;28;20035;-66
2023/08/19 09:22:15;;;;;;;15.10;13.70;;;30.20;99.90;;;;;;5051643;28;20506;-67
2023/08/19 09:24:40;;;;;;;17.50;15.90;;;30.30;99.90;;;;;;5045840;28;20047;-66
2023/08/19 09:27:06;;;;;;;16.92;15.32;;;30.40;99.90;;;;;;5042379;28;20040;-67
2023/08/19 09:29:33;;;;;;;15.77;14.50;;;30.30;99.90;;;;;;5042880;28;20025;-66
2023/08/19 09:31:59;;;;;;;14.88;13.48;;;30.40;99.90;;;;;;5053820;28;20033;-66
2023/08/19 09:34:25;;;;;;;19.77;16.08;;;30.40;99.90;;;;;;5054039;28;20095;-66
2023/08/19 09:36:57;;;;;;;16.20;14.68;;;30.50;99.90;;;;;;5053847;28;20483;-66
2023/08/19 09:39:32;;;;;;;19.45;17.55;;;30.60;99.90;;;;;;5054008;28;20033;-66
2023/08/19 09:41:58;;;;;;;17.45;15.30;;;30.50;99.90;;;;;;5040128;28;20029;-66
2023/08/19 09:44:27;;;;;;;15.40;14.00;;;30.70;99.90;;;;;;5053739;28;20024;-67
2023/08/19 09:46:55;;;;;;;16.98;15.43;;;30.70;99.90;;;;;;5053526;28;20017;-67
2023/08/19 09:49:21;;;;;;;17.45;15.77;;;30.80;99.90;;;;;;5053514;28;20025;-67
2023/08/19 09:51:56;;;;;;;18.85;17.02;;;30.70;99.90;;;;;;5053757;28;20025;-67
2023/08/19 09:54:23;;;;;;;18.63;16.67;;;30.80;99.90;;;;;;5053437;28;20103;-67
2023/08/19 09:56:57;;;;;;;16.75;15.25;;;30.80;99.90;;;;;;5053428;28;20064;-67
2023/08/19 09:59:26;;;;;;;17.73;16.23;;;30.80;99.90;;;;;;5053446;28;20028;-67
2023/08/19 10:01:53;;;;;;;17.23;15.65;;;30.90;99.90;;;;;;5053617;28;20421;-67
2023/08/19 10:04:22;;;;;;;16.60;15.07;;;31.00;99.90;;;;;;5053391;28;20037;-67
2023/08/19 10:06:54;;;;;;;17.15;15.57;;;31.00;99.90;;;;;;5052959;28;20044;-66
2023/08/19 10:09:24;;;;;;;17.80;16.50;;;31.10;99.90;;;;;;5053321;28;20098;-67
2023/08/19 10:11:52;;;;;;;17.92;16.20;;;31.00;99.90;;;;;;5053352;28;20029;-67
2023/08/19 10:14:26;;;;;;;18.90;16.95;;;31.10;99.90;;;;;;5047176;28;20487;-67
2023/08/19 10:16:52;;;;;;;18.40;16.80;;;31.10;99.90;;;;;;5046146;28;20127;-67
2023/08/19 10:19:21;;;;;;;17.10;15.70;;;31.10;99.90;;;;;;5052994;28;20115;-67
2023/08/19 10:21:50;;;;;;;18.40;16.67;;;31.20;99.90;;;;;;5041643;28;20113;-67
2023/08/19 10:24:17;;;;;;;18.15;16.23;;;31.20;99.90;;;;;;5045977;28;20030;-67
2023/08/19 10:26:48;;;;;;;16.60;14.93;;;31.30;99.90;;;;;;5043072;28;20083;-67
2023/08/19 10:29:14;;;;;;;15.25;13.90;;;31.30;99.90;;;;;;5053154;28;20032;-67
2023/08/19 10:31:42;;;;;;;18.05;16.25;;;31.40;99.90;;;;;;5053252;28;20363;-67
2023/08/19 10:34:23;;;;;;;17.25;15.43;;;31.60;99.90;;;;;;5052820;28;20029;-67
2023/08/19 10:37:06;;;;;;;16.27;14.48;;;31.70;99.90;;;;;;5052981;28;20566;-67
2023/08/19 10:39:32;;;;;;;16.92;14.90;;;31.70;99.90;;;;;;5052813;28;20586;-67
2023/08/19 10:41:58;;;;;;;16.23;14.52;;;31.50;99.90;;;;;;5053174;28;20108;-67
2023/08/19 10:44:27;;;;;;;15.77;14.38;;;31.50;99.90;;;;;;5052737;28;20478;-67
2023/08/19 10:47:10;;;;;;;17.23;15.70;;;31.60;99.90;;;;;;5052741;28;20104;-66
2023/08/19 10:49:36;;;;;;;16.45;15.15;;;31.70;99.90;;;;;;5052839;28;20060;-67
2023/08/19 10:52:05;;;;;;;17.05;15.38;;;31.60;99.90;;;;;;5053028;28;20064;-67
2023/08/19 10:54:42;;;;;;;16.73;15.15;;;31.70;99.90;;;;;;5052818;28;20138;-66
2023/08/19 10:57:17;;;;;;;14.25;13.10;;;31.70;99.90;;;;;;5052806;28;20115;-67
2023/08/19 10:59:45;;;;;;;16.05;14.57;;;32.00;99.90;;;;;;5052741;28;20075;-67
2023/08/19 11:02:11;;;;;;;15.52;13.98;;;31.90;99.90;;;;;;5052693;28;20025;-67
2023/08/19 11:04:40;;;;;;;15.07;13.65;;;32.10;99.90;;;;;;5052691;28;20479;-67
2023/08/19 11:07:07;;;;;;;13.90;12.80;;;32.10;99.90;;;;;;5052356;28;20044;-67
2023/08/19 11:09:33;;;;;;;15.00;13.52;;;32.20;99.90;;;;;;5052791;28;20096;-67
2023/08/19 11:11:59;;;;;;;14.13;12.85;;;32.30;99.90;;;;;;5048744;28;20025;-67
2023/08/19 11:14:25;;;;;;;14.98;13.65;;;32.40;99.90;;;;;;5042848;28;20028;-67
2023/08/19 11:16:52;;;;;;;17.13;12.65;;;32.30;99.90;;;;;;5038545;28;20395;-66
2023/08/19 11:19:19;;;;;;;14.52;12.65;;;32.50;99.90;;;;;;5052548;28;20021;-67
2023/08/19 11:21:45;;;;;;;13.95;12.60;;;32.60;99.90;;;;;;5052429;28;20026;-67
2023/08/19 11:24:14;;;;;;;13.82;12.63;;;32.70;99.90;;;;;;5052640;28;20017;-67
2023/08/19 11:26:44;;;;;;;14.02;12.63;;;32.90;99.90;;;;;;5052564;28;20037;-67
2023/08/19 11:29:11;;;;;;;14.23;13.02;;;32.80;99.90;;;;;;5052157;28;20029;-67
2023/08/19 11:31:39;;;;;;;13.00;11.75;;;33.10;99.90;;;;;;5049696;28;20029;-67
2023/08/19 11:34:09;;;;;;;15.82;13.50;;;33.20;99.90;;;;;;5052382;28;20037;-67
2023/08/19 11:36:38;;;;;;;13.88;12.60;;;33.10;99.90;;;;;;5052187;28;20416;-67
2023/08/19 11:39:05;;;;;;;15.02;13.35;;;33.10;99.90;;;;;;5055794;28;20108;-66
2023/08/19 11:41:32;;;;;;;14.20;12.90;;;33.10;99.90;;;;;;5055847;28;20029;-67
2023/08/19 11:43:59;;;;;;;13.43;12.15;;;33.20;99.90;;;;;;5056046;28;20100;-66
2023/08/19 11:46:29;;;;;;;13.55;12.55;;;33.40;99.90;;;;;;5055902;28;20091;-66
2023/08/19 11:48:56;;;;;;;15.07;13.52;;;33.50;99.90;;;;;;5055814;28;20091;-67
2023/08/19 11:51:22;;;;;;;14.40;13.20;;;33.80;99.90;;;;;;5056091;28;20025;-66
2023/08/19 11:53:51;;;;;;;14.40;13.10;;;33.90;99.90;;;;;;5055668;28;20109;-66
2023/08/19 11:56:17;;;;;;;13.40;12.30;;;34.10;99.90;;;;;;5054428;28;20037;-66
2023/08/19 11:58:53;;;;;;;12.75;11.35;;;34.30;99.90;;;;;;5055700;28;20024;-67
2023/08/19 12:01:19;;;;;;;13.20;11.93;;;;;;;;;;5055837;28;20025;-66
2023/08/19 12:03:46;;;;;;;12.25;11.05;;;;;;;;;;5055613;28;20055;-67
2023/08/19 12:06:13;;;;;;;12.48;11.57;;;42.40;99.90;;;;;;5055255;28;20080;-66
2023/08/19 12:08:40;;;;;;;13.07;12.07;;;44.00;99.90;;;;;;5055498;28;20037;-67
2023/08/19 12:11:06;;;;;;;13.75;12.50;;;;;;;;;;5055758;28;20021;-67
2023/08/19 12:13:32;;;;;;;13.80;12.70;;;44.30;99.90;;;;;;5055799;28;20037;-67
2023/08/19 12:15:58;;;;;;;13.95;12.55;;;43.80;99.90;;;;;;5055386;28;20544;-67
2023/08/19 12:18:24;;;;;;;14.65;12.48;;;43.10;99.90;;;;;;5055070;28;20589;-68
2023/08/19 12:20:51;;;;;;;13.30;12.23;;;42.90;99.90;;;;;;5054512;28;20047;-67
2023/08/19 12:23:17;;;;;;;13.13;11.90;;;42.40;99.90;;;;;;5049422;28;20033;-67
2023/08/19 12:25:49;;;;;;;11.23;10.32;;;42.30;99.90;;;;;;5036558;28;20036;-67
2023/08/19 12:28:16;;;;;;;12.57;11.60;;;43.20;99.90;;;;;;5037482;28;20038;-67